createdAt,value
2022-08-17T00:00:34.682Z,18.30
2022-08-17T00:03:04.681Z,18.30
2022-08-17T00:05:34.904Z,18.40
2022-08-17T00:08:02.186Z,18.40
2022-08-17T00:10:29.547Z,18.30
2022-08-17T00:12:59.591Z,18.40
2022-08-17T00:15:26.716Z,18.30
2022-08-17T00:17:53.866Z,18.40
2022-08-17T00:20:23.446Z,18.40
2022-08-17T00:23:09.817Z,18.40
2022-08-17T00:25:37.155Z,18.30
2022-08-17T00:28:04.670Z,18.30
2022-08-17T00:30:51.195Z,18.30
2022-08-17T00:33:31.117Z,18.30
2022-08-17T00:35:59.547Z,18.30
2022-08-17T00:38:28.459Z,18.30
2022-08-17T00:41:02.440Z,18.30
2022-08-17T00:43:29.393Z,18.40
2022-08-17T00:45:57.585Z,18.40
2022-08-17T00:48:29.188Z,18.40
2022-08-17T00:51:44.449Z,18.30
2022-08-17T00:54:16.083Z,18.20
2022-08-17T00:57:07.328Z,18.10
2022-08-17T01:00:00.591Z,18.10
2022-08-17T01:02:35.025Z,18.10
2022-08-17T01:05:23.751Z,18.10
2022-08-17T01:07:53.834Z,18.10
2022-08-17T01:10:58.730Z,18.10
2022-08-17T01:13:15.117Z,18.20
2022-08-17T01:15:50.612Z,18.20
2022-08-17T01:18:17.760Z,18.20
2022-08-17T01:20:49.581Z,18.30
2022-08-17T01:23:21.012Z,18.40
2022-08-17T01:25:58.423Z,18.50
2022-08-17T01:28:36.177Z,18.50
2022-08-17T01:31:15.442Z,18.50
2022-08-17T01:33:42.746Z,18.50
2022-08-17T01:36:09.817Z,18.40
2022-08-17T01:38:38.566Z,18.40
2022-08-17T01:41:13.780Z,18.30
2022-08-17T01:43:53.987Z,18.30
2022-08-17T01:46:28.752Z,18.20
2022-08-17T01:48:57.701Z,18.20
2022-08-17T01:51:33.107Z,18.20
2022-08-17T01:54:11.981Z,18.10
2022-08-17T01:56:42.291Z,18.00
2022-08-17T01:59:09.498Z,18.00
2022-08-17T02:01:37.207Z,17.90
2022-08-17T02:04:07.036Z,17.90
2022-08-17T02:06:44.846Z,17.80
2022-08-17T02:09:25.614Z,17.80
2022-08-17T02:11:54.932Z,17.80
2022-08-17T02:14:24.224Z,17.70
2022-08-17T02:16:51.388Z,17.80
2022-08-17T02:19:18.876Z,17.80
2022-08-17T02:21:48.615Z,17.80
2022-08-17T02:25:01.219Z,17.90
2022-08-17T02:27:16.223Z,18.00
2022-08-17T02:29:43.195Z,18.00
2022-08-17T02:32:27.477Z,18.00
2022-08-17T02:34:59.110Z,18.00
2022-08-17T02:37:30.394Z,18.00
2022-08-17T02:39:58.697Z,18.00
2022-08-17T02:42:35.833Z,18.00
2022-08-17T02:45:06.061Z,18.00
2022-08-17T02:47:33.995Z,18.00
2022-08-17T02:50:00.987Z,18.00
2022-08-17T02:52:43.729Z,17.90
2022-08-17T02:55:30.768Z,17.90
2022-08-17T02:57:57.778Z,17.90
2022-08-17T03:00:29.147Z,17.80
2022-08-17T03:02:57.146Z,17.80
2022-08-17T03:05:26.335Z,17.60
2022-08-17T03:07:53.735Z,17.40
2022-08-17T03:10:22.026Z,17.30
2022-08-17T03:12:50.335Z,17.20
2022-08-17T03:15:24.164Z,17.00
2022-08-17T03:17:52.460Z,16.90
2022-08-17T03:20:20.694Z,16.90
2022-08-17T03:22:53.809Z,16.80
2022-08-17T03:25:30.211Z,16.90
2022-08-17T03:27:57.959Z,16.80
2022-08-17T03:30:26.684Z,16.80
2022-08-17T03:32:56.851Z,16.70
2022-08-17T03:35:27.339Z,16.60
2022-08-17T03:38:00.277Z,16.60
2022-08-17T03:40:58.020Z,16.60
2022-08-17T03:43:16.349Z,16.60
2022-08-17T03:46:01.623Z,16.50
2022-08-17T03:48:47.714Z,16.50
2022-08-17T03:51:38.245Z,16.50
2022-08-17T03:54:25.003Z,16.40
2022-08-17T03:57:12.608Z,16.30
2022-08-17T03:59:41.087Z,16.30
2022-08-17T04:02:16.511Z,16.30
2022-08-17T04:04:43.571Z,16.30
2022-08-17T04:07:10.689Z,16.30
2022-08-17T04:09:37.787Z,16.30
2022-08-17T04:12:05.433Z,16.40
2022-08-17T04:14:50.830Z,16.40
2022-08-17T04:17:23.260Z,16.50
2022-08-17T04:19:50.298Z,16.60
2022-08-17T04:22:31.346Z,16.60
2022-08-17T04:25:09.403Z,16.70
2022-08-17T04:27:36.783Z,16.70
2022-08-17T04:30:07.117Z,16.70
2022-08-17T04:33:04.504Z,16.70
2022-08-17T04:35:37.362Z,16.70
2022-08-17T04:38:05.086Z,16.80
2022-08-17T04:40:50.814Z,16.80
2022-08-17T04:43:21.772Z,16.80
2022-08-17T04:45:56.840Z,16.90
2022-08-17T04:48:36.327Z,16.90
2022-08-17T04:51:10.470Z,17.00
2022-08-17T04:53:42.644Z,17.00
2022-08-17T04:56:11.779Z,17.10
2022-08-17T04:58:50.542Z,17.10
2022-08-17T05:01:23.589Z,17.20
2022-08-17T05:03:54.721Z,17.20
2022-08-17T05:06:22.576Z,17.20
2022-08-17T05:08:49.724Z,17.30
2022-08-17T05:11:16.919Z,17.30
2022-08-17T05:13:44.894Z,17.40
2022-08-17T05:16:12.384Z,17.40
2022-08-17T05:18:39.687Z,17.50
2022-08-17T05:21:07.568Z,17.50
2022-08-17T05:23:42.801Z,17.50
2022-08-17T05:26:26.269Z,17.60
2022-08-17T05:29:02.554Z,17.60
2022-08-17T05:31:30.694Z,17.70
2022-08-17T05:33:58.840Z,17.70
2022-08-17T05:36:41.962Z,17.80
2022-08-17T05:39:15.659Z,18.00
2022-08-17T05:41:44.390Z,18.10
2022-08-17T05:44:11.403Z,18.30
2022-08-17T05:46:42.692Z,18.50
2022-08-17T05:49:11.141Z,18.80
2022-08-17T05:52:06.846Z,19.20
2022-08-17T05:54:48.706Z,20.20
2022-08-17T05:57:36.499Z,21.70
2022-08-17T06:00:20.139Z,23.40
2022-08-17T06:03:15.289Z,24.90
2022-08-17T06:06:07.284Z,26.40
2022-08-17T06:09:05.799Z,27.90
2022-08-17T06:11:47.111Z,28.60
2022-08-17T06:14:26.495Z,28.90
2022-08-17T06:17:00.494Z,29.90
2022-08-17T06:19:54.841Z,30.90
2022-08-17T06:22:24.924Z,31.80
2022-08-17T06:24:57.679Z,32.70
2022-08-17T06:27:38.923Z,33.40
2022-08-17T06:30:16.645Z,34.20
2022-08-17T06:32:47.481Z,34.10
2022-08-17T06:35:18.632Z,34.00
2022-08-17T06:38:10.512Z,33.90
2022-08-17T06:41:07.357Z,34.20
2022-08-17T06:43:52.528Z,33.40
2022-08-17T06:46:40.723Z,33.50
2022-08-17T06:49:17.130Z,33.40
2022-08-17T06:52:00.853Z,32.30
2022-08-17T06:54:38.432Z,32.70
2022-08-17T06:57:25.230Z,31.40
2022-08-17T07:00:18.791Z,31.00
2022-08-17T07:03:36.224Z,31.00
2022-08-17T07:06:11.294Z,31.80
2022-08-17T07:09:14.140Z,32.50
2022-08-17T07:11:59.226Z,32.80
2022-08-17T07:14:38.533Z,33.20
2022-08-17T07:17:12.226Z,33.60
2022-08-17T07:19:41.446Z,33.80
2022-08-17T07:22:22.052Z,33.70
2022-08-17T07:24:58.718Z,33.60
2022-08-17T07:27:33.089Z,33.50
2022-08-17T07:30:16.767Z,32.50
2022-08-17T07:32:51.059Z,32.70
2022-08-17T07:35:22.190Z,33.20
2022-08-17T07:37:55.785Z,34.00
2022-08-17T07:40:27.262Z,34.10
2022-08-17T07:43:05.683Z,34.20
2022-08-17T07:45:53.246Z,35.10
2022-08-17T07:48:26.773Z,34.80
2022-08-17T07:50:53.622Z,35.30
2022-08-17T07:53:25.952Z,35.30
2022-08-17T07:55:53.987Z,35.10
2022-08-17T07:58:23.921Z,34.70
2022-08-17T08:01:18.531Z,34.90
2022-08-17T08:03:46.874Z,34.90
2022-08-17T08:06:25.192Z,34.80
2022-08-17T08:08:56.636Z,34.50
2022-08-17T08:11:36.543Z,34.30
2022-08-17T08:14:31.308Z,34.30
2022-08-17T08:17:05.160Z,35.20
2022-08-17T08:19:33.523Z,35.70
2022-08-17T08:22:10.364Z,35.20
2022-08-17T08:24:43.245Z,35.00
2022-08-17T08:27:22.332Z,35.00
2022-08-17T08:30:16.732Z,34.80
2022-08-17T08:33:14.763Z,34.40
2022-08-17T08:36:10.405Z,34.10
2022-08-17T08:39:09.857Z,33.90
2022-08-17T08:41:45.061Z,33.90
2022-08-17T08:44:59.847Z,33.80
2022-08-17T08:47:41.701Z,33.60
2022-08-17T08:50:37.540Z,34.10
2022-08-17T08:53:30.171Z,34.60
2022-08-17T08:56:19.919Z,34.90
2022-08-17T08:59:00.326Z,35.30
2022-08-17T09:01:42.410Z,35.80
2022-08-17T09:04:29.588Z,36.20
2022-08-17T09:07:17.391Z,36.10
2022-08-17T09:09:59.298Z,36.30
2022-08-17T09:12:57.487Z,36.20
2022-08-17T09:15:40.475Z,36.10
2022-08-17T09:19:01.184Z,36.60
2022-08-17T09:21:18.087Z,36.60
2022-08-17T09:24:00.253Z,37.10
2022-08-17T09:26:39.559Z,37.00
2022-08-17T09:29:11.337Z,36.90
2022-08-17T09:31:55.217Z,36.70
2022-08-17T09:34:48.537Z,36.60
2022-08-17T09:37:22.523Z,36.60
2022-08-17T09:40:03.236Z,36.30
2022-08-17T09:43:00.988Z,35.70
2022-08-17T09:45:40.221Z,35.10
2022-08-17T09:48:28.249Z,35.00
2022-08-17T09:51:10.940Z,34.50
2022-08-17T09:53:39.681Z,34.90
2022-08-17T09:56:21.899Z,35.40
2022-08-17T09:59:11.387Z,35.70
2022-08-17T10:01:44.773Z,34.40
2022-08-17T10:04:39.816Z,33.50
2022-08-17T10:07:19.331Z,33.20
2022-08-17T10:10:14.808Z,32.70
2022-08-17T10:12:58.512Z,32.40
2022-08-17T10:15:53.329Z,32.30
2022-08-17T10:19:02.160Z,31.80
2022-08-17T10:21:50.047Z,32.10
2022-08-17T10:25:21.010Z,32.80
2022-08-17T10:27:48.994Z,33.40
2022-08-17T10:30:23.210Z,33.70
2022-08-17T10:32:55.192Z,33.60
2022-08-17T10:35:35.422Z,33.50
2022-08-17T10:38:15.660Z,33.10
2022-08-17T10:40:54.574Z,32.90
2022-08-17T10:43:57.920Z,33.00
2022-08-17T10:46:54.403Z,33.10
2022-08-17T10:49:24.228Z,33.10
2022-08-17T10:52:00.637Z,32.90
2022-08-17T10:54:46.759Z,32.70
2022-08-17T10:57:32.120Z,32.30
2022-08-17T11:00:27.096Z,31.90
2022-08-17T11:02:57.609Z,31.70
2022-08-17T11:05:43.434Z,31.80
2022-08-17T11:08:22.868Z,31.90
2022-08-17T11:11:07.139Z,32.30
2022-08-17T11:13:40.659Z,32.60
2022-08-17T11:16:41.150Z,32.90
2022-08-17T11:19:11.231Z,33.30
2022-08-17T11:21:50.572Z,33.50
2022-08-17T11:24:43.374Z,33.60
2022-08-17T11:27:21.841Z,34.00
2022-08-17T11:30:01.491Z,34.70
2022-08-17T11:32:54.360Z,35.30
2022-08-17T11:35:21.895Z,35.30
2022-08-17T11:38:20.391Z,35.10
2022-08-17T11:41:09.103Z,34.40
2022-08-17T11:43:58.249Z,33.30
2022-08-17T11:47:24.832Z,32.60
2022-08-17T11:50:36.587Z,32.30
2022-08-17T11:53:04.597Z,32.20
2022-08-17T11:55:35.852Z,32.20
2022-08-17T11:58:07.552Z,32.50
2022-08-17T12:00:46.965Z,32.30
2022-08-17T12:03:42.592Z,32.40
2022-08-17T12:06:42.245Z,32.30
2022-08-17T12:09:31.532Z,31.70
2022-08-17T12:12:13.082Z,32.00
2022-08-17T12:17:40.577Z,32.10
2022-08-17T12:20:32.180Z,32.10
2022-08-17T12:23:28.394Z,31.60
2022-08-17T12:26:11.401Z,31.40
2022-08-17T12:28:44.475Z,31.30
2022-08-17T12:31:23.295Z,31.10
2022-08-17T12:33:51.894Z,31.10
2022-08-17T12:36:26.095Z,31.20
2022-08-17T12:39:13.911Z,31.40
2022-08-17T12:41:48.036Z,31.70
2022-08-17T12:44:21.308Z,32.00
2022-08-17T12:47:04.746Z,32.30
2022-08-17T12:49:41.635Z,32.60
2022-08-17T12:52:25.150Z,32.50
2022-08-17T12:55:00.040Z,32.30
2022-08-17T12:57:35.271Z,32.00
2022-08-17T13:00:20.133Z,31.80
2022-08-17T13:02:51.245Z,31.60
2022-08-17T13:05:25.205Z,31.40
2022-08-17T13:07:53.506Z,31.60
2022-08-17T13:10:28.615Z,32.20
2022-08-17T13:12:58.254Z,32.70
2022-08-17T13:15:32.188Z,33.10
2022-08-17T13:18:10.242Z,33.20
2022-08-17T13:20:37.686Z,32.70
2022-08-17T13:23:12.023Z,32.50
2022-08-17T13:25:39.763Z,32.50
2022-08-17T13:28:06.744Z,32.50
2022-08-17T13:30:34.005Z,32.40
2022-08-17T13:33:04.643Z,32.20
2022-08-17T13:35:50.230Z,32.20
2022-08-17T13:38:41.217Z,32.30
2022-08-17T13:41:08.934Z,32.20
2022-08-17T13:43:45.407Z,32.40
2022-08-17T13:46:21.095Z,32.50
2022-08-17T13:49:09.873Z,32.70
2022-08-17T13:51:44.083Z,32.50
2022-08-17T13:54:32.727Z,32.30
2022-08-17T13:57:06.742Z,32.30
2022-08-17T13:59:54.193Z,32.30
2022-08-17T14:02:27.793Z,32.50
2022-08-17T14:04:56.514Z,32.80
2022-08-17T14:07:28.590Z,33.00
2022-08-17T14:10:11.560Z,33.00
2022-08-17T14:12:41.463Z,32.50
2022-08-17T14:15:09.451Z,32.20
2022-08-17T14:17:39.076Z,32.10
2022-08-17T14:20:10.365Z,31.90
2022-08-17T14:22:40.534Z,31.80
2022-08-17T14:25:10.699Z,31.70
2022-08-17T14:27:51.736Z,31.60
2022-08-17T14:30:26.692Z,31.40
2022-08-17T14:32:58.241Z,31.20
2022-08-17T14:35:27.913Z,31.10
2022-08-17T14:37:55.452Z,31.10
2022-08-17T14:40:25.049Z,31.10
2022-08-17T14:42:53.279Z,31.20
2022-08-17T14:45:32.272Z,31.30
2022-08-17T14:48:04.322Z,31.30
2022-08-17T14:50:32.149Z,31.50
2022-08-17T14:53:03.943Z,31.50
2022-08-17T14:55:31.231Z,31.70
2022-08-17T14:57:58.484Z,31.90
2022-08-17T15:00:26.934Z,32.10
2022-08-17T15:02:58.425Z,32.20
2022-08-17T15:05:31.697Z,32.20
2022-08-17T15:08:01.183Z,32.30
2022-08-17T15:10:29.402Z,32.00
2022-08-17T15:12:56.580Z,31.90
2022-08-17T15:15:24.034Z,31.90
2022-08-17T15:17:51.742Z,31.90
2022-08-17T15:20:28.393Z,31.70
2022-08-17T15:22:57.388Z,31.70
2022-08-17T15:25:27.696Z,31.80
2022-08-17T15:27:56.177Z,31.90
2022-08-17T15:30:24.503Z,31.80
2022-08-17T15:32:55.132Z,31.60
2022-08-17T15:35:29.105Z,31.40
2022-08-17T15:37:58.675Z,31.00
2022-08-17T15:40:25.775Z,30.80
2022-08-17T15:42:53.039Z,30.60
2022-08-17T15:45:24.971Z,30.40
2022-08-17T15:47:52.841Z,30.20
2022-08-17T15:50:20.214Z,30.10
2022-08-17T15:52:47.659Z,30.20
2022-08-17T15:55:16.592Z,30.20
2022-08-17T15:57:44.936Z,30.20
2022-08-17T16:00:12.292Z,30.10
2022-08-17T16:03:15.106Z,30.10
2022-08-17T16:05:30.145Z,30.10
2022-08-17T16:07:59.931Z,30.00
2022-08-17T16:10:35.054Z,29.80
2022-08-17T16:13:04.278Z,29.70
2022-08-17T16:15:31.878Z,29.60
2022-08-17T16:17:59.438Z,29.50
2022-08-17T16:20:26.725Z,29.40
2022-08-17T16:22:55.001Z,29.10
2022-08-17T16:25:52.676Z,29.00
2022-08-17T16:28:15.917Z,29.00
2022-08-17T16:30:43.210Z,28.90
2022-08-17T16:33:11.748Z,29.10
2022-08-17T16:35:39.282Z,29.10
2022-08-17T16:38:07.204Z,29.00
2022-08-17T16:40:36.094Z,28.90
2022-08-17T16:43:07.123Z,28.80
2022-08-17T16:45:40.717Z,28.70
2022-08-17T16:48:09.357Z,28.50
2022-08-17T16:50:36.987Z,28.40
2022-08-17T16:53:10.818Z,28.30
2022-08-17T16:55:38.655Z,28.10
2022-08-17T16:58:06.878Z,27.90
2022-08-17T17:00:34.323Z,27.80
2022-08-17T17:03:18.898Z,27.60
2022-08-17T17:06:34.529Z,27.40
2022-08-17T17:09:11.305Z,27.20
2022-08-17T17:11:45.045Z,27.10
2022-08-17T17:14:19.317Z,26.90
2022-08-17T17:17:05.822Z,26.70
2022-08-17T17:19:46.583Z,26.60
2022-08-17T17:22:45.181Z,26.40
2022-08-17T17:25:27.660Z,26.30
2022-08-17T17:28:14.330Z,26.20
2022-08-17T17:31:09.195Z,26.10
2022-08-17T17:34:03.992Z,26.00
2022-08-17T17:36:42.083Z,25.90
2022-08-17T17:39:49.116Z,25.80
2022-08-17T17:42:22.472Z,25.70
2022-08-17T17:45:12.332Z,25.60
2022-08-17T17:47:39.440Z,25.50
2022-08-17T17:50:07.445Z,25.40
2022-08-17T17:52:47.597Z,25.30
2022-08-17T17:55:17.661Z,25.30
2022-08-17T17:58:21.369Z,25.20
2022-08-17T18:01:05.168Z,25.10
2022-08-17T18:04:04.704Z,24.90
2022-08-17T18:06:51.176Z,24.80
2022-08-17T18:09:21.139Z,24.70
2022-08-17T18:12:12.279Z,24.60
2022-08-17T18:15:02.230Z,24.40
2022-08-17T18:17:29.956Z,24.30
2022-08-17T18:19:57.327Z,24.20
2022-08-17T18:22:25.395Z,24.10
2022-08-17T18:24:58.331Z,24.00
2022-08-17T18:27:38.259Z,23.90
2022-08-17T18:30:14.013Z,23.90
2022-08-17T18:32:46.715Z,23.80
2022-08-17T18:35:16.330Z,23.70
2022-08-17T18:37:49.218Z,23.60
2022-08-17T18:40:19.849Z,23.60
2022-08-17T18:42:59.258Z,23.50
2022-08-17T18:45:41.329Z,23.50
2022-08-17T18:48:58.902Z,23.40
2022-08-17T18:51:42.890Z,23.30
2022-08-17T18:54:20.967Z,23.20
2022-08-17T18:56:56.691Z,23.30
2022-08-17T18:59:31.842Z,23.20
2022-08-17T19:02:27.254Z,23.20
2022-08-17T19:05:25.511Z,23.20
2022-08-17T19:07:52.700Z,23.10
2022-08-17T19:10:45.841Z,23.10
2022-08-17T19:13:24.944Z,23.10
2022-08-17T19:16:18.041Z,23.20
2022-08-17T19:19:02.564Z,23.10
2022-08-17T19:21:52.562Z,23.20
2022-08-17T19:24:23.322Z,23.20
2022-08-17T19:26:57.574Z,23.20
2022-08-17T19:29:43.765Z,23.20
2022-08-17T19:32:13.004Z,23.20
2022-08-17T19:34:44.658Z,23.20
2022-08-17T19:37:42.407Z,23.20
2022-08-17T19:40:51.066Z,23.10
2022-08-17T19:43:38.616Z,23.10
2022-08-17T19:46:26.903Z,23.00
2022-08-17T19:49:15.738Z,22.90
2022-08-17T19:51:59.037Z,22.90
2022-08-17T19:54:47.464Z,22.90
2022-08-17T19:57:42.581Z,22.80
2022-08-17T20:00:16.840Z,22.80
2022-08-17T20:02:45.034Z,22.80
2022-08-17T20:05:17.800Z,22.80
2022-08-17T20:08:19.265Z,22.70
2022-08-17T20:10:54.342Z,22.70
2022-08-17T20:13:33.131Z,22.60
2022-08-17T20:16:02.545Z,22.60
2022-08-17T20:18:54.992Z,22.60
2022-08-17T20:21:40.455Z,22.70
2022-08-17T20:24:23.415Z,22.70
2022-08-17T20:27:01.165Z,22.70
2022-08-17T20:29:39.836Z,22.90
2022-08-17T20:32:22.872Z,22.80
2022-08-17T20:35:05.573Z,22.80
2022-08-17T20:37:35.121Z,22.80
2022-08-17T20:40:05.798Z,22.90
2022-08-17T20:42:34.116Z,22.90
2022-08-17T20:45:20.698Z,22.90
2022-08-17T20:51:18.389Z,23.00
2022-08-17T20:53:48.440Z,23.00
2022-08-17T20:56:43.553Z,23.10
2022-08-17T20:59:25.869Z,23.10
2022-08-17T21:02:12.448Z,23.10
2022-08-17T21:04:48.735Z,23.10
2022-08-17T21:07:43.372Z,23.10
2022-08-17T21:10:26.027Z,23.10
2022-08-17T21:12:53.045Z,23.20
2022-08-17T21:15:41.987Z,23.20
2022-08-17T21:18:38.909Z,23.20
2022-08-17T21:21:53.594Z,23.20
2022-08-17T21:24:42.032Z,23.20
2022-08-17T21:27:34.092Z,23.00
2022-08-17T21:30:09.485Z,22.70
2022-08-17T21:32:41.863Z,22.30
2022-08-17T21:35:38.862Z,21.90
2022-08-17T21:38:14.650Z,21.50
2022-08-17T21:40:45.581Z,21.00
2022-08-17T21:43:25.264Z,20.70
2022-08-17T21:45:57.723Z,20.50
2022-08-17T21:48:27.552Z,20.30
2022-08-17T21:51:12.336Z,20.10
2022-08-17T21:53:42.382Z,19.80
2022-08-17T21:56:12.074Z,19.60
2022-08-17T21:58:45.416Z,19.40
2022-08-17T22:01:24.819Z,19.10
2022-08-17T22:03:59.647Z,18.90
2022-08-17T22:06:52.592Z,18.70
2022-08-17T22:09:40.624Z,18.60
2022-08-17T22:12:11.400Z,18.40
2022-08-17T22:14:56.315Z,18.30
2022-08-17T22:17:35.696Z,18.10
2022-08-17T22:20:16.967Z,18.10
2022-08-17T22:23:08.324Z,18.00
2022-08-17T22:25:56.334Z,17.90
2022-08-17T22:28:57.664Z,17.90
2022-08-17T22:31:28.152Z,17.80
2022-08-17T22:33:59.922Z,17.80
2022-08-17T22:36:30.803Z,17.70
2022-08-17T22:39:05.125Z,17.70
2022-08-17T22:41:50.668Z,17.70
2022-08-17T22:44:20.542Z,17.60
2022-08-17T22:47:16.424Z,17.60
2022-08-17T22:49:57.948Z,17.50
2022-08-17T22:52:56.922Z,17.40
2022-08-17T22:55:43.531Z,17.40
2022-08-17T22:58:36.351Z,17.30
2022-08-17T23:01:28.330Z,17.30
2022-08-17T23:04:05.023Z,17.20
2022-08-17T23:06:34.955Z,17.30
2022-08-17T23:09:04.454Z,17.10
2022-08-17T23:11:49.511Z,17.10
2022-08-17T23:14:19.928Z,17.10
2022-08-17T23:16:49.089Z,17.10
2022-08-17T23:19:20.098Z,17.10
2022-08-17T23:21:53.867Z,17.00
2022-08-17T23:24:24.442Z,17.00
2022-08-17T23:26:51.764Z,17.00
2022-08-17T23:29:21.659Z,16.90
2022-08-17T23:31:51.132Z,16.90
2022-08-17T23:34:19.100Z,16.90
2022-08-17T23:36:52.423Z,16.90
2022-08-17T23:39:27.587Z,16.80
2022-08-17T23:41:57.907Z,16.80
2022-08-17T23:44:25.707Z,16.80
2022-08-17T23:46:54.171Z,16.80
2022-08-17T23:49:21.294Z,16.80
2022-08-17T23:51:49.337Z,16.80
2022-08-17T23:54:27.112Z,16.80
2022-08-17T23:56:54.211Z,16.80
2022-08-17T23:59:22.854Z,16.70
